createdAt,value
2023-02-15T00:03:24.447Z,-28.11
2023-02-15T00:08:28.198Z,-28.32
2023-02-15T00:13:32.822Z,-28.31
2023-02-15T00:18:36.938Z,-28.43
2023-02-15T00:23:40.872Z,-28.67
2023-02-15T00:28:44.792Z,-28.59
2023-02-15T00:33:48.828Z,-28.53
2023-02-15T00:38:52.737Z,-28.76
2023-02-15T00:43:56.831Z,-28.86
2023-02-15T00:49:00.877Z,-28.78
2023-02-15T00:54:04.862Z,-28.76
2023-02-15T00:59:10.477Z,-28.85
2023-02-15T01:04:14.382Z,-28.87
2023-02-15T01:09:18.163Z,-28.87
2023-02-15T01:14:22.154Z,-28.89
2023-02-15T01:19:26.998Z,-28.96
2023-02-15T01:24:30.950Z,-29.74
2023-02-15T01:29:34.993Z,-29.08
2023-02-15T01:34:38.476Z,-29.09
2023-02-15T01:39:42.313Z,-29.14
2023-02-15T01:45:01.586Z,-29.78
2023-02-15T01:50:20.550Z,-29.20
2023-02-15T01:55:28.291Z,-29.17
2023-02-15T02:00:32.401Z,-29.13
2023-02-15T02:05:36.288Z,-29.09
2023-02-15T02:10:41.003Z,-29.15
2023-02-15T02:16:09.273Z,-29.13
2023-02-15T02:21:52.146Z,-29.07
2023-02-15T02:27:20.309Z,-28.83
2023-02-15T02:33:02.847Z,-28.48
2023-02-15T02:38:06.618Z,-28.23
2023-02-15T02:43:32.960Z,-27.99
2023-02-15T02:48:36.937Z,-27.70
2023-02-15T02:53:40.723Z,-27.49
2023-02-15T02:58:53.640Z,-27.28
2023-02-15T03:04:13.930Z,-27.04
2023-02-15T03:09:47.449Z,-26.74
2023-02-15T03:15:17.693Z,-26.41
2023-02-15T03:20:36.063Z,-26.10
2023-02-15T03:25:44.243Z,-25.89
2023-02-15T03:30:55.660Z,-25.46
2023-02-15T03:36:02.489Z,-25.15
2023-02-15T03:41:11.617Z,-24.86
2023-02-15T03:46:45.987Z,-24.58
2023-02-15T03:51:54.287Z,-24.27
2023-02-15T03:57:19.850Z,-23.95
2023-02-15T04:02:32.128Z,-23.58
2023-02-15T04:07:36.006Z,-23.74
2023-02-15T04:12:39.727Z,-22.95
2023-02-15T04:17:43.637Z,-23.08
2023-02-15T04:23:06.116Z,-22.38
2023-02-15T04:28:10.051Z,-22.08
2023-02-15T04:33:14.259Z,-21.77
2023-02-15T04:38:18.049Z,-21.47
2023-02-15T04:43:22.104Z,-21.13
2023-02-15T04:48:26.125Z,-20.82
2023-02-15T04:53:29.914Z,-20.61
2023-02-15T04:58:33.965Z,-20.43
2023-02-15T05:03:37.905Z,-20.50
2023-02-15T05:08:41.878Z,-20.11
2023-02-15T05:13:45.993Z,-19.91
2023-02-15T05:18:49.767Z,-19.76
2023-02-15T05:23:53.900Z,-19.85
2023-02-15T05:28:57.771Z,-19.47
2023-02-15T05:34:02.647Z,-19.32
2023-02-15T05:39:07.766Z,-19.16
2023-02-15T05:44:11.586Z,-19.12
2023-02-15T05:49:15.545Z,-18.95
2023-02-15T05:54:19.289Z,-18.78
2023-02-15T05:59:23.151Z,-18.64
2023-02-15T06:04:27.190Z,-18.48
2023-02-15T06:09:31.069Z,-18.34
2023-02-15T06:14:35.150Z,-18.22
2023-02-15T06:19:39.164Z,-18.13
2023-02-15T06:24:44.419Z,-18.00
2023-02-15T06:29:48.169Z,-17.93
2023-02-15T06:34:52.302Z,-18.44
2023-02-15T06:39:56.342Z,-17.93
2023-02-15T06:45:01.877Z,-17.78
2023-02-15T06:50:09.560Z,-17.67
2023-02-15T06:55:13.427Z,-18.07
2023-02-15T07:00:17.689Z,-17.54
2023-02-15T07:05:21.870Z,-17.43
2023-02-15T07:10:27.152Z,-17.39
2023-02-15T07:15:31.248Z,-17.11
2023-02-15T07:20:37.735Z,-16.94
2023-02-15T07:25:41.620Z,-16.77
2023-02-15T07:30:45.768Z,-16.57
2023-02-15T07:35:56.030Z,-16.38
2023-02-15T07:41:01.253Z,-16.21
2023-02-15T07:46:10.921Z,-16.01
2023-02-15T07:51:16.252Z,-15.82
2023-02-15T07:56:20.134Z,-15.67
2023-02-15T08:01:32.003Z,-15.48
2023-02-15T08:06:37.980Z,-15.29
2023-02-15T08:11:42.345Z,-15.43
2023-02-15T08:16:50.073Z,-14.98
2023-02-15T08:22:02.664Z,-14.87
2023-02-15T08:27:11.469Z,-14.74
2023-02-15T08:32:15.757Z,-14.57
2023-02-15T08:37:20.352Z,-14.88
2023-02-15T08:42:24.455Z,-14.50
2023-02-15T08:47:28.312Z,-14.45
2023-02-15T08:52:32.381Z,-14.40
2023-02-15T08:57:37.733Z,-14.40
2023-02-15T09:02:41.676Z,-14.31
2023-02-15T09:07:46.461Z,-14.30
2023-02-15T09:12:51.728Z,-14.29
2023-02-15T09:17:55.706Z,-14.27
2023-02-15T09:23:00.005Z,-14.22
2023-02-15T09:28:05.383Z,-14.24
2023-02-15T09:33:09.195Z,-14.57
2023-02-15T09:38:13.853Z,-14.24
2023-02-15T09:43:37.081Z,-14.22
2023-02-15T09:48:43.147Z,-14.19
2023-02-15T09:54:10.471Z,-14.13
2023-02-15T09:59:23.033Z,-14.12
2023-02-15T10:04:41.916Z,-14.15
2023-02-15T10:10:12.277Z,-14.16
2023-02-15T10:15:54.873Z,-14.25
2023-02-15T10:21:25.885Z,-14.21
2023-02-15T10:26:45.976Z,-14.24
2023-02-15T10:31:52.491Z,-14.34
2023-02-15T10:37:08.048Z,-14.34
2023-02-15T10:42:32.651Z,-14.40
2023-02-15T10:47:55.655Z,-14.44
2023-02-15T10:53:27.227Z,-14.54
2023-02-15T10:58:47.368Z,-14.65
2023-02-15T11:04:09.908Z,-14.77
2023-02-15T11:09:22.102Z,-14.89
2023-02-15T11:14:40.994Z,-14.98
2023-02-15T11:20:02.364Z,-15.12
2023-02-15T11:25:22.452Z,-15.31
2023-02-15T11:30:47.480Z,-15.59
2023-02-15T11:36:05.104Z,-15.79
2023-02-15T11:41:25.836Z,-15.97
2023-02-15T11:46:30.383Z,-16.14
2023-02-15T11:51:34.393Z,-16.35
2023-02-15T11:56:38.468Z,-16.53
2023-02-15T12:01:47.025Z,-16.72
2023-02-15T12:07:02.966Z,-16.94
2023-02-15T12:12:23.280Z,-17.11
2023-02-15T12:17:39.831Z,-17.23
2023-02-15T12:23:04.527Z,-17.38
2023-02-15T12:28:42.616Z,-18.09
2023-02-15T12:33:49.798Z,-17.77
2023-02-15T12:39:27.823Z,-17.90
2023-02-15T12:44:33.293Z,-18.00
2023-02-15T12:49:40.307Z,-18.17
2023-02-15T12:54:45.201Z,-18.30
2023-02-15T12:59:58.367Z,-18.48
2023-02-15T13:05:29.418Z,-18.55
2023-02-15T13:10:38.625Z,-18.76
2023-02-15T13:15:47.117Z,-19.01
2023-02-15T13:20:52.388Z,-19.17
2023-02-15T13:26:00.139Z,-19.27
2023-02-15T13:31:04.357Z,-19.52
2023-02-15T13:36:12.233Z,-19.82
2023-02-15T13:41:22.361Z,-20.02
2023-02-15T13:46:32.535Z,-20.29
2023-02-15T13:51:58.237Z,-20.52
2023-02-15T13:57:23.115Z,-20.66
2023-02-15T14:02:27.691Z,-20.74
2023-02-15T14:08:02.350Z,-20.93
2023-02-15T14:13:50.717Z,-21.16
2023-02-15T14:19:07.284Z,-21.07
2023-02-15T14:24:27.195Z,-21.07
2023-02-15T14:29:37.365Z,-21.13
2023-02-15T14:34:47.793Z,-21.35
2023-02-15T14:40:19.093Z,-21.44
2023-02-15T14:45:58.269Z,-22.12
2023-02-15T14:51:03.101Z,-21.85
2023-02-15T14:56:20.335Z,-22.04
2023-02-15T15:01:32.169Z,-21.88
2023-02-15T15:06:39.569Z,-22.04
2023-02-15T15:11:52.542Z,-22.14
2023-02-15T15:16:56.733Z,-22.34
2023-02-15T15:22:06.731Z,-22.91
2023-02-15T15:27:38.226Z,-22.68
2023-02-15T15:32:49.490Z,-22.90
2023-02-15T15:38:27.165Z,-23.55
2023-02-15T15:43:39.738Z,-23.07
2023-02-15T15:48:43.832Z,-23.33
2023-02-15T15:53:54.688Z,-23.31
2023-02-15T15:59:04.826Z,-23.40
2023-02-15T16:04:15.286Z,-23.42
2023-02-15T16:09:22.160Z,-23.42
2023-02-15T16:14:41.413Z,-23.44
2023-02-15T16:19:47.115Z,-23.47
2023-02-15T16:24:50.660Z,-23.51
2023-02-15T16:29:54.868Z,-23.57
2023-02-15T16:35:04.822Z,-23.78
2023-02-15T16:40:40.597Z,-23.96
2023-02-15T16:45:45.319Z,-24.16
2023-02-15T16:50:56.988Z,-24.10
2023-02-15T16:56:04.174Z,-24.01
2023-02-15T17:01:11.670Z,-24.04
2023-02-15T17:06:28.166Z,-24.17
2023-02-15T17:11:38.188Z,-24.19
2023-02-15T17:16:53.061Z,-24.24
2023-02-15T17:22:06.631Z,-24.21
2023-02-15T17:27:26.674Z,-24.26
2023-02-15T17:32:33.140Z,-24.42
2023-02-15T17:37:40.091Z,-24.52
2023-02-15T17:42:43.889Z,-24.66
2023-02-15T17:47:50.002Z,-24.78
2023-02-15T17:52:57.412Z,-25.06
2023-02-15T17:58:01.469Z,-25.51
2023-02-15T18:03:23.599Z,-25.16
2023-02-15T18:08:48.200Z,-25.23
2023-02-15T18:13:52.124Z,-25.33
2023-02-15T18:18:57.995Z,-25.99
2023-02-15T18:24:01.778Z,-25.69
2023-02-15T18:29:05.685Z,-25.64
2023-02-15T18:34:32.065Z,-25.63
2023-02-15T18:39:56.244Z,-25.66
2023-02-15T18:45:04.897Z,-25.62
2023-02-15T18:50:09.781Z,-26.14
2023-02-15T18:55:25.928Z,-25.62
2023-02-15T19:00:35.475Z,-25.55
2023-02-15T19:05:39.478Z,-25.70
2023-02-15T19:10:44.600Z,-25.70
2023-02-15T19:15:48.253Z,-25.94
2023-02-15T19:20:52.246Z,-26.00
2023-02-15T19:25:56.175Z,-26.46
2023-02-15T19:31:00.008Z,-25.83
2023-02-15T19:36:05.228Z,-25.98
2023-02-15T19:41:17.477Z,-25.97
2023-02-15T19:46:22.414Z,-26.05
2023-02-15T19:51:27.632Z,-26.09
2023-02-15T19:56:31.518Z,-26.19
2023-02-15T20:01:35.561Z,-26.31
2023-02-15T20:06:39.635Z,-26.39
2023-02-15T20:11:43.478Z,-26.45
2023-02-15T20:16:47.466Z,-26.45
2023-02-15T20:21:55.159Z,-26.64
2023-02-15T20:27:00.878Z,-26.56
2023-02-15T20:32:04.841Z,-26.58
2023-02-15T20:37:24.276Z,-26.64
2023-02-15T20:42:28.235Z,-26.64
2023-02-15T20:47:32.059Z,-26.60
2023-02-15T20:52:36.805Z,-26.76
2023-02-15T20:57:40.582Z,-26.80
2023-02-15T21:02:44.876Z,-26.94
2023-02-15T21:07:49.503Z,-27.06
2023-02-15T21:12:54.023Z,-27.13
2023-02-15T21:18:01.813Z,-27.26
2023-02-15T21:23:07.617Z,-27.39
2023-02-15T21:28:19.622Z,-27.47
2023-02-15T21:33:23.450Z,-27.68
2023-02-15T21:38:31.741Z,-27.57
2023-02-15T21:43:53.929Z,-27.58
2023-02-15T21:48:57.897Z,-27.58
2023-02-15T21:54:01.695Z,-27.65
2023-02-15T21:59:14.345Z,-27.63
2023-02-15T22:04:28.554Z,-27.56
2023-02-15T22:09:32.345Z,-27.58
2023-02-15T22:14:40.081Z,-27.51
2023-02-15T22:19:45.716Z,-27.55
2023-02-15T22:24:52.582Z,-28.07
2023-02-15T22:29:56.818Z,-27.67
2023-02-15T22:35:00.669Z,-27.56
2023-02-15T22:40:04.962Z,-27.48
2023-02-15T22:45:20.232Z,-28.07
2023-02-15T22:50:27.105Z,-27.65
2023-02-15T22:55:37.394Z,-27.64
2023-02-15T23:00:41.451Z,-27.64
2023-02-15T23:05:46.741Z,-27.73
2023-02-15T23:10:57.706Z,-27.86
2023-02-15T23:16:04.073Z,-27.91
2023-02-15T23:21:14.180Z,-27.96
2023-02-15T23:26:25.782Z,-28.01
2023-02-15T23:31:32.831Z,-28.05
2023-02-15T23:36:39.425Z,-28.12
2023-02-15T23:41:43.182Z,-28.16
2023-02-15T23:46:49.746Z,-28.22
2023-02-15T23:51:56.736Z,-28.28
2023-02-15T23:57:03.095Z,-28.31
